Time;durP1;ratioP1;P1;durP2;ratioP2;P2;SDS_P1;SDS_P2;PMS_P1;PMS_P2;Temp;Humidity;BMP_temperature;BMP_pressure;BME280_temperature;BME280_humidity;BME280_pressure;Samples;Min_cycle;Max_cycle;Signal;HPM_P1;HPM_P2
2022/06/29 00:00:14;;;;;;;3.25;2.00;;;16.30;99.90;;;;;;5004803;28;20543;-86
2022/06/29 00:02:40;;;;;;;5.28;2.50;;;16.30;99.90;;;;;;4987639;28;20048;-87
2022/06/29 00:05:07;;;;;;;5.10;2.50;;;16.40;99.90;;;;;;5004490;28;20244;-86
2022/06/29 00:07:33;;;;;;;4.80;2.17;;;16.30;99.90;;;;;;4988398;28;20397;-86
2022/06/29 00:09:59;;;;;;;5.35;2.28;;;16.30;99.90;;;;;;4970909;28;20049;-86
2022/06/29 00:12:24;;;;;;;10.20;2.67;;;16.30;99.90;;;;;;4972152;28;20132;-87
2022/06/29 00:14:50;;;;;;;4.82;3.00;;;16.30;99.90;;;;;;4986479;28;20038;-87
2022/06/29 00:17:16;;;;;;;7.10;2.90;;;16.30;99.90;;;;;;5004712;28;20116;-87
2022/06/29 00:19:42;;;;;;;6.60;2.42;;;16.40;99.90;;;;;;4986707;28;20050;-86
2022/06/29 00:22:09;;;;;;;5.93;2.60;;;16.30;99.90;;;;;;5003878;28;20507;-87
2022/06/29 00:24:35;;;;;;;4.22;2.40;;;16.20;99.90;;;;;;5004269;28;20053;-87
2022/06/29 00:27:02;;;;;;;7.57;3.03;;;16.20;99.90;;;;;;4986870;28;20088;-87
2022/06/29 00:29:28;;;;;;;3.25;2.53;;;16.20;99.90;;;;;;4973176;28;20045;-86
2022/06/29 00:31:55;;;;;;;5.25;3.15;;;16.10;99.90;;;;;;4989155;28;20045;-86
2022/06/29 00:34:20;;;;;;;6.13;2.25;;;16.10;99.90;;;;;;5007857;28;20052;-86
2022/06/29 00:36:46;;;;;;;7.97;2.92;;;16.00;99.90;;;;;;5006033;28;20491;-87
2022/06/29 00:39:12;;;;;;;9.45;2.60;;;16.00;99.90;;;;;;4991084;28;20112;-86
2022/06/29 00:41:43;;;;;;;3.60;2.30;;;15.90;99.90;;;;;;4990863;28;20037;-85
2022/06/29 00:44:12;;;;;;;8.95;3.63;;;15.90;99.90;;;;;;4990224;28;20133;-87
2022/06/29 00:47:03;;;;;;;4.55;3.08;;;15.90;99.90;;;;;;4991567;28;20042;-88
2022/06/29 00:49:30;;;;;;;4.13;2.60;;;15.80;99.90;;;;;;4998958;28;20058;-88
2022/06/29 00:52:03;;;;;;;4.43;3.00;;;15.80;99.90;;;;;;4991387;28;20048;-88
2022/06/29 00:54:36;;;;;;;3.40;2.70;;;15.80;99.90;;;;;;5007892;28;20362;-89
2022/06/29 00:57:02;;;;;;;;;;;15.70;99.90;;;;;;5006876;28;20042;-88
2022/06/29 00:59:34;;;;;;;6.38;3.10;;;15.70;99.90;;;;;;4991168;28;20021;-88
2022/06/29 01:02:00;;;;;;;6.22;3.13;;;15.60;99.90;;;;;;5005392;28;20515;-88
2022/06/29 01:04:26;;;;;;;5.53;3.20;;;15.60;99.90;;;;;;4975184;28;20060;-88
2022/06/29 01:06:51;;;;;;;5.47;3.45;;;15.60;99.90;;;;;;4973484;28;20060;-88
2022/06/29 01:09:18;;;;;;;6.75;3.30;;;15.60;99.90;;;;;;4990966;28;20046;-88
2022/06/29 01:11:44;;;;;;;3.78;2.92;;;15.60;99.90;;;;;;4958843;28;20042;-88
2022/06/29 01:14:15;;;;;;;3.70;3.20;;;15.60;99.90;;;;;;4957325;28;20048;-88
2022/06/29 01:16:40;;;;;;;4.40;2.78;;;15.60;99.90;;;;;;4990761;28;20049;-88
2022/06/29 01:19:06;;;;;;;4.35;3.45;;;16.00;99.90;;;;;;4995044;28;20057;-91
2022/06/29 01:21:35;;;;;;;6.88;3.75;;;15.60;99.90;;;;;;5009029;28;20045;-90
2022/06/29 01:24:02;;;;;;;5.85;3.65;;;15.60;99.90;;;;;;5004356;28;20103;-90
2022/06/29 01:26:28;;;;;;;5.47;3.00;;;15.60;99.90;;;;;;4993384;28;20077;-90
2022/06/29 01:28:54;;;;;;;7.55;2.95;;;15.60;99.90;;;;;;4991691;28;20081;-90
2022/06/29 01:31:20;;;;;;;6.78;3.45;;;15.50;99.90;;;;;;4973541;28;20042;-90
2022/06/29 01:33:47;;;;;;;5.20;2.83;;;15.50;99.90;;;;;;5008023;28;20045;-89
2022/06/29 01:36:14;;;;;;;4.72;3.30;;;15.50;99.90;;;;;;4976186;28;20075;-90
2022/06/29 01:38:40;;;;;;;6.10;3.38;;;15.50;99.90;;;;;;4994046;28;20523;-90
2022/06/29 01:41:08;;;;;;;4.72;3.70;;;15.50;99.90;;;;;;4991496;28;20109;-90
2022/06/29 01:43:38;;;;;;;6.72;3.63;;;15.50;99.90;;;;;;4977103;28;20060;-90
2022/06/29 01:46:04;;;;;;;5.80;3.63;;;15.50;99.90;;;;;;4975517;28;20046;-90
2022/06/29 01:48:30;;;;;;;4.68;3.40;;;15.50;99.90;;;;;;4990665;28;20041;-91
2022/06/29 01:50:56;;;;;;;3.60;3.03;;;15.50;99.90;;;;;;4993034;28;20045;-89
2022/06/29 01:53:22;;;;;;;4.95;3.80;;;15.50;99.90;;;;;;4991970;28;20050;-88
2022/06/29 01:55:49;;;;;;;7.18;3.25;;;15.50;99.90;;;;;;4976187;28;20050;-89
2022/06/29 01:58:16;;;;;;;8.80;3.47;;;15.50;99.90;;;;;;4957945;28;20563;-89
2022/06/29 02:00:43;;;;;;;5.53;3.83;;;15.50;99.90;;;;;;4990236;28;20141;-90
2022/06/29 02:03:09;;;;;;;6.53;3.65;;;15.30;99.90;;;;;;4991657;28;20401;-90
2022/06/29 02:05:35;;;;;;;5.70;3.65;;;15.60;99.90;;;;;;4958603;28;20037;-91
2022/06/29 02:08:01;;;;;;;4.78;3.53;;;15.60;99.90;;;;;;4991503;28;20069;-90
2022/06/29 02:10:27;;;;;;;4.85;3.78;;;15.60;99.90;;;;;;4973207;28;20042;-91
2022/06/29 02:12:52;;;;;;;7.57;3.80;;;15.60;99.90;;;;;;4975172;28;20500;-89
2022/06/29 02:15:18;;;;;;;4.80;3.50;;;15.70;99.90;;;;;;4973307;28;20050;-90
2022/06/29 02:17:44;;;;;;;5.70;3.25;;;15.70;99.90;;;;;;4973804;28;20058;-90
2022/06/29 02:20:12;;;;;;;9.57;3.30;;;15.70;99.90;;;;;;4990584;28;20054;-90
2022/06/29 02:22:39;;;;;;;5.80;3.75;;;15.80;99.90;;;;;;4988810;28;20046;-90
2022/06/29 02:25:05;;;;;;;5.47;3.15;;;15.80;99.90;;;;;;4990348;28;20056;-89
2022/06/29 02:27:30;;;;;;;5.47;3.47;;;15.80;99.90;;;;;;4971683;28;20049;-89
2022/06/29 02:29:56;;;;;;;8.32;4.13;;;15.80;99.90;;;;;;5006301;28;20046;-89
2022/06/29 02:35:06;;;;;;;6.22;4.50;;;15.80;99.90;;;;;;4991233;28;20060;-88
2022/06/29 02:37:32;;;;;;;6.07;3.45;;;15.90;99.90;;;;;;4989670;28;20042;-88
2022/06/29 02:39:58;;;;;;;5.20;3.53;;;15.90;99.90;;;;;;4972054;28;20077;-89
2022/06/29 02:42:23;;;;;;;5.20;3.40;;;15.80;99.90;;;;;;4957406;28;20038;-89
2022/06/29 02:44:49;;;;;;;5.65;3.60;;;15.80;99.90;;;;;;4988183;28;20041;-88
2022/06/29 02:47:16;;;;;;;7.00;4.00;;;15.80;99.90;;;;;;4973729;28;20046;-88
2022/06/29 02:49:42;;;;;;;8.45;3.78;;;15.80;99.90;;;;;;4972652;28;20132;-88
2022/06/29 02:52:08;;;;;;;12.13;3.83;;;15.80;99.90;;;;;;4972184;28;20129;-88
2022/06/29 02:54:34;;;;;;;4.35;3.42;;;15.80;99.90;;;;;;4989170;28;20048;-88
2022/06/29 02:56:59;;;;;;;4.72;4.22;;;15.70;99.90;;;;;;4971418;28;20095;-89
2022/06/29 02:59:25;;;;;;;6.38;3.65;;;15.70;99.90;;;;;;5005777;28;20050;-90
2022/06/29 03:01:51;;;;;;;5.05;3.95;;;15.70;99.90;;;;;;4971977;28;20054;-89
2022/06/29 03:04:16;;;;;;;10.73;3.63;;;15.70;99.90;;;;;;4973870;28;20044;-90
2022/06/29 03:06:42;;;;;;;7.22;4.30;;;15.60;99.90;;;;;;4988565;28;20046;-90
2022/06/29 03:09:08;;;;;;;5.30;4.15;;;15.70;99.90;;;;;;4989470;28;20489;-91
2022/06/29 03:11:34;;;;;;;3.85;3.38;;;15.70;99.90;;;;;;4990012;28;20232;-90
2022/06/29 03:14:00;;;;;;;7.10;3.80;;;15.70;99.90;;;;;;4989241;28;20177;-89
2022/06/29 03:16:26;;;;;;;5.93;4.18;;;15.60;99.90;;;;;;4994641;28;20037;-89
2022/06/29 03:18:52;;;;;;;12.55;4.53;;;15.60;99.90;;;;;;5003011;28;20378;-91
2022/06/29 03:21:18;;;;;;;4.25;3.85;;;15.60;99.90;;;;;;5011345;28;20049;-90
2022/06/29 03:23:44;;;;;;;6.40;4.47;;;15.60;99.90;;;;;;4972739;28;20339;-89
2022/06/29 03:26:11;;;;;;;7.57;4.63;;;15.50;99.90;;;;;;4989043;28;20041;-89
2022/06/29 03:28:37;;;;;;;5.13;3.58;;;15.50;99.90;;;;;;4989629;28;20386;-89
2022/06/29 03:31:03;;;;;;;4.50;3.58;;;15.50;99.90;;;;;;4972131;28;20092;-90
2022/06/29 03:33:29;;;;;;;8.00;4.25;;;15.50;99.90;;;;;;4988958;28;20050;-89
2022/06/29 03:35:55;;;;;;;4.72;3.83;;;15.50;99.90;;;;;;4971653;28;20041;-90
2022/06/29 03:38:20;;;;;;;6.18;3.55;;;15.60;99.90;;;;;;5005630;28;20046;-89
2022/06/29 03:40:46;;;;;;;8.60;4.63;;;15.40;99.90;;;;;;4987248;28;20050;-90
2022/06/29 03:43:12;;;;;;;5.05;4.30;;;15.40;99.90;;;;;;4988937;28;20431;-90
2022/06/29 03:45:37;;;;;;;6.90;4.25;;;15.40;99.90;;;;;;4972645;28;20050;-89
2022/06/29 03:48:03;;;;;;;6.50;4.50;;;15.40;99.90;;;;;;4987979;28;20088;-88
2022/06/29 03:50:29;;;;;;;6.07;4.38;;;15.50;99.90;;;;;;4973123;28;20133;-88
2022/06/29 03:52:55;;;;;;;8.27;4.07;;;16.10;99.90;;;;;;4955018;28;20128;-89
2022/06/29 03:55:21;;;;;;;5.30;4.05;;;15.40;99.90;;;;;;4989504;28;20082;-88
2022/06/29 03:57:46;;;;;;;5.45;4.10;;;15.50;99.90;;;;;;4970801;28;20416;-89
2022/06/29 04:00:12;;;;;;;4.65;3.92;;;15.50;99.90;;;;;;4989286;28;20145;-90
2022/06/29 04:02:39;;;;;;;9.25;4.50;;;15.50;99.90;;;;;;4957205;28;20069;-88
2022/06/29 04:05:05;;;;;;;6.95;4.40;;;16.30;99.90;;;;;;4989118;28;20095;-89
2022/06/29 04:07:31;;;;;;;6.65;4.13;;;15.50;99.90;;;;;;4976119;28;20497;-89
2022/06/29 04:10:00;;;;;;;5.60;4.18;;;15.60;99.90;;;;;;5006627;28;20374;-88
2022/06/29 04:12:31;;;;;;;7.05;4.38;;;15.50;99.90;;;;;;4975928;28;20502;-88
2022/06/29 04:14:57;;;;;;;8.95;4.45;;;15.50;99.90;;;;;;4991092;28;20138;-90
2022/06/29 04:17:22;;;;;;;5.65;4.25;;;15.70;99.90;;;;;;4992398;28;20042;-90
2022/06/29 04:19:51;;;;;;;5.15;4.32;;;15.60;99.90;;;;;;4991822;28;20060;-91
2022/06/29 04:22:18;;;;;;;5.13;3.75;;;15.60;99.90;;;;;;4991178;28;20616;-89
2022/06/29 04:24:44;;;;;;;7.43;4.50;;;15.60;99.90;;;;;;4991961;28;20224;-89
2022/06/29 04:27:10;;;;;;;7.93;5.18;;;15.60;99.90;;;;;;4973803;28;20042;-89
2022/06/29 04:29:35;;;;;;;5.53;4.88;;;15.50;99.90;;;;;;4975538;28;20038;-87
2022/06/29 04:32:02;;;;;;;5.47;3.97;;;15.60;99.90;;;;;;4990106;28;20034;-88
2022/06/29 04:34:28;;;;;;;9.07;4.82;;;15.50;99.90;;;;;;5007263;28;20112;-87
2022/06/29 04:36:54;;;;;;;6.28;4.43;;;15.60;99.90;;;;;;4990766;28;20046;-88
2022/06/29 04:39:20;;;;;;;5.65;4.63;;;15.60;99.90;;;;;;4974462;28;20383;-90
2022/06/29 04:41:45;;;;;;;5.68;4.30;;;15.60;99.90;;;;;;4991416;28;20038;-89
2022/06/29 04:44:11;;;;;;;7.38;5.20;;;15.70;99.90;;;;;;4973302;28;20113;-86
2022/06/29 04:46:37;;;;;;;10.50;4.75;;;15.80;99.90;;;;;;4975345;28;20037;-89
2022/06/29 04:49:03;;;;;;;9.02;4.80;;;15.80;99.90;;;;;;4973769;28;20402;-88
2022/06/29 04:51:30;;;;;;;10.50;5.35;;;15.90;99.90;;;;;;5007767;28;20522;-88
2022/06/29 04:53:57;;;;;;;12.18;4.65;;;15.90;99.90;;;;;;4990475;28;20058;-89
2022/06/29 04:56:26;;;;;;;7.35;4.78;;;16.00;99.90;;;;;;4958697;28;20386;-87
2022/06/29 04:58:53;;;;;;;8.93;4.50;;;16.10;99.90;;;;;;4990778;28;20046;-84
2022/06/29 05:01:23;;;;;;;8.02;4.53;;;16.20;99.90;;;;;;4989667;28;20045;-89
2022/06/29 05:03:49;;;;;;;7.80;4.45;;;16.20;99.90;;;;;;5007276;28;20053;-87
2022/06/29 05:06:15;;;;;;;7.30;4.53;;;16.30;99.90;;;;;;4989416;28;20405;-88
2022/06/29 05:08:41;;;;;;;12.57;4.53;;;16.80;99.90;;;;;;4974391;28;20053;-88
2022/06/29 05:11:07;;;;;;;6.30;5.13;;;16.50;99.90;;;;;;5007280;28;20104;-87
2022/06/29 05:13:32;;;;;;;7.50;4.38;;;16.50;99.90;;;;;;4995668;28;20049;-88
2022/06/29 05:15:58;;;;;;;13.93;5.47;;;16.60;99.90;;;;;;4992546;28;20049;-87
2022/06/29 05:18:24;;;;;;;9.27;4.60;;;16.70;99.90;;;;;;4989762;28;20053;-88
2022/06/29 05:20:50;;;;;;;7.90;4.72;;;16.80;99.90;;;;;;4974310;28;20042;-89
2022/06/29 05:23:18;;;;;;;7.68;4.47;;;16.90;99.90;;;;;;4989646;28;20042;-87
2022/06/29 05:25:46;;;;;;;6.75;3.92;;;16.90;99.90;;;;;;5012331;28;20060;-90
2022/06/29 05:28:13;;;;;;;12.68;4.97;;;17.00;99.90;;;;;;5014011;28;20054;-91
2022/06/29 05:30:39;;;;;;;11.95;5.00;;;17.00;99.90;;;;;;4995796;28;20132;-90
2022/06/29 05:33:05;;;;;;;19.13;5.65;;;17.10;99.90;;;;;;4997227;28;20131;-90
2022/06/29 05:35:33;;;;;;;8.50;4.40;;;17.20;99.90;;;;;;5011096;28;20042;-88
2022/06/29 05:38:01;;;;;;;12.48;4.10;;;17.20;99.90;;;;;;5009759;28;20087;-88
2022/06/29 05:40:27;;;;;;;9.02;4.68;;;17.30;99.90;;;;;;4990615;28;20138;-89
2022/06/29 05:42:53;;;;;;;9.60;4.47;;;17.30;99.90;;;;;;5007212;28;20042;-89
2022/06/29 05:45:19;;;;;;;13.25;4.63;;;17.40;99.90;;;;;;4992741;28;20458;-89
2022/06/29 05:47:45;;;;;;;7.10;3.70;;;17.40;99.90;;;;;;4977855;28;20049;-92
2022/06/29 05:50:10;;;;;;;7.15;4.80;;;17.50;99.90;;;;;;4999113;28;20068;-93
2022/06/29 05:52:37;;;;;;;8.65;4.20;;;17.50;99.90;;;;;;4981307;28;20041;-92
2022/06/29 05:55:06;;;;;;;6.85;3.80;;;17.50;99.90;;;;;;5004208;28;20045;-93
2022/06/29 05:57:33;;;;;;;5.30;3.67;;;17.60;99.90;;;;;;5019945;28;20049;-90
2022/06/29 06:00:01;;;;;;;5.88;3.28;;;17.70;99.90;;;;;;5026214;28;20053;-94
2022/06/29 06:02:27;;;;;;;8.32;3.92;;;17.70;99.90;;;;;;4990195;28;20069;-93
2022/06/29 06:04:53;;;;;;;6.30;3.70;;;17.40;99.90;;;;;;4978990;28;20041;-96
2022/06/29 06:07:19;;;;;;;11.60;4.10;;;18.10;99.90;;;;;;4992577;28;20061;-89
2022/06/29 06:09:44;;;;;;;8.00;3.80;;;17.70;99.90;;;;;;4972440;28;20109;-95
2022/06/29 06:12:11;;;;;;;5.85;3.88;;;17.80;99.90;;;;;;4980599;28;20480;-95
2022/06/29 06:14:44;;;;;;;4.13;3.33;;;17.90;99.90;;;;;;5014005;28;20559;-94
2022/06/29 06:17:10;;;;;;;4.75;3.38;;;17.90;99.90;;;;;;4995918;28;20369;-93
2022/06/29 06:19:35;;;;;;;3.50;3.00;;;17.90;99.90;;;;;;4991107;28;20359;-92
2022/06/29 06:22:01;;;;;;;9.90;4.10;;;18.00;99.90;;;;;;4991602;28;20137;-92
2022/06/29 06:24:27;;;;;;;5.75;3.38;;;18.00;99.90;;;;;;4976358;28;20030;-91
2022/06/29 06:26:53;;;;;;;7.18;2.95;;;18.10;99.90;;;;;;4971601;28;20042;-94
2022/06/29 06:29:19;;;;;;;7.68;2.78;;;18.20;99.90;;;;;;4976115;28;20045;-93
2022/06/29 06:31:46;;;;;;;5.32;2.80;;;18.40;99.90;;;;;;4958277;28;20038;-91
2022/06/29 06:34:11;;;;;;;4.97;3.15;;;18.50;99.90;;;;;;4959856;28;20042;-92
2022/06/29 06:36:37;;;;;;;5.78;2.58;;;18.60;99.90;;;;;;4990101;28;20109;-91
2022/06/29 06:39:03;;;;;;;8.32;2.20;;;18.70;99.90;;;;;;4975112;28;20112;-92
2022/06/29 06:41:29;;;;;;;3.72;2.22;;;18.80;99.90;;;;;;4990955;28;20543;-94
2022/06/29 06:43:59;;;;;;;4.95;2.10;;;19.00;99.90;;;;;;4957641;28;20045;-93
2022/06/29 06:46:26;;;;;;;3.95;1.88;;;19.10;99.90;;;;;;4974419;28;20038;-91
2022/06/29 06:48:52;;;;;;;4.93;1.83;;;19.20;99.90;;;;;;4973938;28;20396;-92
2022/06/29 06:51:20;;;;;;;4.70;1.80;;;19.30;99.90;;;;;;4974969;28;20045;-91
2022/06/29 06:53:46;;;;;;;3.13;1.85;;;19.50;99.90;;;;;;4989322;28;20386;-92
2022/06/29 06:56:14;;;;;;;4.43;1.48;;;19.60;99.90;;;;;;4974237;28;20468;-93
2022/06/29 06:58:40;;;;;;;4.15;1.42;;;19.80;99.90;;;;;;4990296;28;20401;-93
2022/06/29 07:01:07;;;;;;;2.17;1.25;;;19.90;99.90;;;;;;4957586;28;20552;-92
2022/06/29 07:03:36;;;;;;;3.80;1.65;;;20.00;99.90;;;;;;4974871;28;20038;-88
2022/06/29 07:06:11;;;;;;;2.25;1.10;;;20.10;99.90;;;;;;4996580;28;20152;-94
2022/06/29 07:08:38;;;;;;;4.32;1.67;;;20.30;99.90;;;;;;4999488;28;20390;-95
2022/06/29 07:11:05;;;;;;;3.35;1.70;;;20.40;99.90;;;;;;4959082;28;20045;-93
2022/06/29 07:13:35;;;;;;;3.80;1.23;;;20.50;99.90;;;;;;4974781;28;20048;-94
2022/06/29 07:16:03;;;;;;;3.55;1.30;;;20.70;99.90;;;;;;4976125;28;20085;-93
2022/06/29 07:18:29;;;;;;;3.50;1.30;;;20.80;99.90;;;;;;4973098;28;20097;-94
2022/06/29 07:20:55;;;;;;;2.67;1.30;;;20.90;99.90;;;;;;4990033;28;20056;-92
2022/06/29 07:23:21;;;;;;;3.33;1.85;;;20.90;99.90;;;;;;4955946;28;20089;-88
2022/06/29 07:25:47;;;;;;;5.07;1.80;;;21.10;99.90;;;;;;4957508;28;20045;-93
2022/06/29 07:28:13;;;;;;;3.05;1.50;;;21.20;99.90;;;;;;4989016;28;20053;-94
2022/06/29 07:30:38;;;;;;;2.97;1.20;;;21.30;99.90;;;;;;4958512;28;20046;-94
2022/06/29 07:33:04;;;;;;;2.35;1.10;;;21.40;99.90;;;;;;4974492;28;20548;-94
2022/06/29 07:35:30;;;;;;;3.58;1.58;;;21.50;99.90;;;;;;4974833;28;20096;-96
2022/06/29 07:37:56;;;;;;;6.75;1.30;;;21.60;99.90;;;;;;4976958;28;20042;-96
2022/06/29 07:40:22;;;;;;;3.33;1.10;;;21.70;99.90;;;;;;4961361;28;20081;-92
2022/06/29 07:42:48;;;;;;;2.05;1.30;;;21.80;99.90;;;;;;4980233;28;20054;-94
2022/06/29 07:45:14;;;;;;;4.63;1.27;;;21.90;99.90;;;;;;4996237;28;20068;-95
2022/06/29 07:47:40;;;;;;;3.42;1.08;;;21.90;99.90;;;;;;4997782;28;20045;-95
2022/06/29 07:50:07;;;;;;;3.80;1.05;;;22.10;99.90;;;;;;4963849;28;20041;-94
2022/06/29 07:52:33;;;;;;;2.90;0.98;;;22.20;99.90;;;;;;4998229;28;20115;-94
2022/06/29 07:55:03;;;;;;;4.50;1.77;;;22.80;99.90;;;;;;5001866;28;20115;-95
2022/06/29 07:57:29;;;;;;;4.70;1.17;;;22.30;99.90;;;;;;4999899;28;20045;-96
2022/06/29 07:59:54;;;;;;;3.58;1.45;;;22.40;99.90;;;;;;5002208;28;20046;-95
2022/06/29 08:02:20;;;;;;;1.90;1.00;;;22.60;99.90;;;;;;4963471;28;20502;-96
2022/06/29 08:04:46;;;;;;;1.33;0.90;;;22.80;99.90;;;;;;4981364;28;20091;-95
2022/06/29 08:07:12;;;;;;;1.58;0.80;;;22.90;99.90;;;;;;4982918;28;20095;-95
2022/06/29 08:09:37;;;;;;;4.45;0.90;;;23.00;99.90;;;;;;4968136;28;20042;-93
2022/06/29 08:12:04;;;;;;;3.80;1.27;;;23.20;99.90;;;;;;4983949;28;20106;-95
2022/06/29 08:14:30;;;;;;;1.95;1.27;;;23.20;99.90;;;;;;4983555;28;20042;-93
2022/06/29 08:16:56;;;;;;;1.20;0.68;;;23.30;99.90;;;;;;4996958;28;20045;-94
2022/06/29 08:19:21;;;;;;;2.20;0.88;;;23.40;99.90;;;;;;4978840;28;20057;-95
2022/06/29 08:21:48;;;;;;;2.38;0.90;;;23.40;99.90;;;;;;4979027;28;20053;-95
2022/06/29 08:24:14;;;;;;;9.50;1.10;;;23.50;99.90;;;;;;4978803;28;20056;-94
2022/06/29 08:26:40;;;;;;;2.05;1.20;;;23.50;99.90;;;;;;4980091;28;20073;-93
2022/06/29 08:29:05;;;;;;;3.80;1.00;;;23.50;99.90;;;;;;4962296;28;20049;-95
2022/06/29 08:31:31;;;;;;;0.95;0.80;;;22.70;99.90;;;;;;4994090;28;20049;-94
2022/06/29 08:33:57;;;;;;;2.42;1.00;;;23.50;99.90;;;;;;4963450;28;20053;-95
2022/06/29 08:36:23;;;;;;;4.53;1.08;;;23.60;99.90;;;;;;4995810;28;20038;-95
2022/06/29 08:38:49;;;;;;;2.58;0.65;;;23.70;99.90;;;;;;4995952;28;20042;-94
2022/06/29 08:41:16;;;;;;;1.42;0.98;;;23.90;99.90;;;;;;4993533;28;20042;-94
2022/06/29 08:43:43;;;;;;;1.23;0.80;;;24.10;99.90;;;;;;4995122;28;20049;-95
2022/06/29 08:46:12;;;;;;;2.60;0.70;;;24.20;99.80;;;;;;4993783;28;20046;-94
2022/06/29 08:48:38;;;;;;;3.03;0.90;;;24.30;98.10;;;;;;4994745;28;20052;-96
2022/06/29 08:51:05;;;;;;;2.67;1.30;;;24.40;98.50;;;;;;4995319;28;20046;-95
2022/06/29 08:53:33;;;;;;;3.67;1.25;;;24.60;98.20;;;;;;4993218;28;20046;-96
2022/06/29 08:56:00;;;;;;;2.08;1.23;;;24.70;97.50;;;;;;4963762;28;20038;-96
2022/06/29 08:58:27;;;;;;;2.50;0.93;;;24.70;97.20;;;;;;4993364;28;20501;-96
2022/06/29 09:00:53;;;;;;;5.53;0.95;;;24.80;96.50;;;;;;4980364;28;20057;-95
2022/06/29 09:03:22;;;;;;;4.45;1.13;;;24.80;96.30;;;;;;4989749;28;20053;-96
2022/06/29 09:05:49;;;;;;;3.78;1.13;;;24.80;95.60;;;;;;5008152;28;20060;-93
2022/06/29 09:08:19;;;;;;;3.13;0.85;;;24.80;95.00;;;;;;5002969;28;20484;-95
2022/06/29 09:10:45;;;;;;;1.60;1.00;;;24.90;93.80;;;;;;4998021;28;20046;-93
2022/06/29 09:13:11;;;;;;;4.05;0.93;;;24.90;94.50;;;;;;4998548;28;20065;-96
2022/06/29 09:15:39;;;;;;;1.50;1.00;;;25.00;94.40;;;;;;4978534;28;20046;-93
2022/06/29 09:18:25;;;;;;;4.47;0.93;;;25.00;93.40;;;;;;4995469;28;20050;-95
2022/06/29 09:20:56;;;;;;;2.88;1.02;;;25.20;92.20;;;;;;4995347;28;20107;-95
2022/06/29 09:23:22;;;;;;;1.30;0.77;;;25.40;95.10;;;;;;4993923;28;20061;-96
2022/06/29 09:25:48;;;;;;;1.10;0.55;;;25.50;95.30;;;;;;4994271;28;20046;-95
2022/06/29 09:28:31;;;;;;;2.10;0.70;;;25.70;93.60;;;;;;4960005;28;20133;-96
2022/06/29 09:31:00;;;;;;;5.65;0.98;;;25.60;91.60;;;;;;4975488;28;20421;-96
2022/06/29 09:33:29;;;;;;;2.20;0.90;;;25.50;92.10;;;;;;4991701;28;20037;-96
2022/06/29 09:36:16;;;;;;;3.28;1.30;;;25.20;91.90;;;;;;4976521;28;20513;-95
2022/06/29 09:38:50;;;;;;;1.75;1.02;;;25.80;86.60;;;;;;4992855;28;20133;-96
2022/06/29 09:41:18;;;;;;;1.98;0.82;;;25.80;90.40;;;;;;4973500;28;20343;-95
2022/06/29 09:43:46;;;;;;;6.72;1.15;;;25.60;89.50;;;;;;4979593;28;20100;-96
2022/06/29 09:46:15;;;;;;;3.08;1.30;;;25.60;90.00;;;;;;4992148;28;20069;-96
2022/06/29 09:48:42;;;;;;;5.20;0.80;;;25.50;90.40;;;;;;4977272;28;20119;-96
2022/06/29 09:53:59;;;;;;;4.70;1.00;;;25.80;92.10;;;;;;4979512;28;20053;-92
2022/06/29 09:56:26;;;;;;;3.60;0.93;;;26.00;92.50;;;;;;4993718;28;20077;-95
2022/06/29 09:58:57;;;;;;;2.95;0.95;;;26.20;93.00;;;;;;4993296;28;20038;-94
2022/06/29 10:04:09;;;;;;;2.17;0.90;;;26.40;88.80;;;;;;5007800;28;20045;-96
2022/06/29 10:06:37;;;;;;;2.38;1.50;;;26.40;86.30;;;;;;4990681;28;20478;-96
2022/06/29 10:09:03;;;;;;;2.83;0.90;;;26.50;85.40;;;;;;4991481;28;20053;-95
2022/06/29 10:14:35;;;;;;;6.32;0.93;;;26.60;81.90;;;;;;5007631;28;20053;-94
2022/06/29 10:17:14;;;;;;;4.22;0.88;;;26.60;82.70;;;;;;4991948;28;20046;-94
2022/06/29 10:20:17;;;;;;;1.83;1.05;;;26.70;84.70;;;;;;4977787;28;20053;-95
2022/06/29 10:22:43;;;;;;;4.38;2.17;;;26.80;75.60;;;;;;4937805;28;20061;-96
2022/06/29 10:25:12;;;;;;;1.80;1.02;;;26.70;80.80;;;;;;4925536;28;20078;-96
2022/06/29 10:27:48;;;;;;;1.38;0.90;;;26.60;79.60;;;;;;4988933;28;20056;-95
2022/06/29 10:30:24;;;;;;;2.65;1.10;;;26.70;79.90;;;;;;4980162;28;20053;-96
2022/06/29 10:32:50;;;;;;;3.55;0.90;;;26.70;77.30;;;;;;4977117;28;20046;-96
2022/06/29 10:35:16;;;;;;;1.70;0.98;;;26.70;78.90;;;;;;4977856;28;20559;-96
2022/06/29 10:37:55;;;;;;;2.25;1.05;;;26.70;78.00;;;;;;4981262;28;20091;-96
2022/06/29 10:40:27;;;;;;;2.75;1.02;;;26.70;74.00;;;;;;4987120;28;20053;-96
2022/06/29 10:43:07;;;;;;;1.60;1.00;;;26.70;75.00;;;;;;4986463;28;20052;-96
2022/06/29 10:45:35;;;;;;;2.95;1.20;;;26.70;76.20;;;;;;4988135;28;20038;-96
2022/06/29 10:48:06;;;;;;;3.95;1.25;;;26.80;75.20;;;;;;5001970;28;20041;-96
2022/06/29 10:50:38;;;;;;;0.93;0.77;;;26.80;73.20;;;;;;5001795;28;20451;-95
2022/06/29 10:53:11;;;;;;;1.20;0.80;;;26.90;74.80;;;;;;4986340;28;20046;-96
2022/06/29 10:55:41;;;;;;;6.55;0.88;;;26.90;73.10;;;;;;4978664;28;20057;-96
2022/06/29 10:58:08;;;;;;;1.52;0.90;;;26.80;74.40;;;;;;4991945;28;20061;-96
2022/06/29 11:01:03;;;;;;;8.00;0.90;;;26.70;76.00;;;;;;5006814;28;20069;-96
2022/06/29 11:03:29;;;;;;;3.20;0.90;;;26.60;69.20;;;;;;5004999;28;20052;-96
2022/06/29 11:17:39;;;;;;;2.63;0.70;;;27.50;64.00;;;;;;5004140;28;20053;-96
2022/06/29 11:19:53;;;;;;;3.92;0.70;;;27.60;61.30;;;;;;4983554;28;20042;-94
2022/06/29 11:22:18;;;;;;;1.73;0.70;;;27.70;60.00;;;;;;4980012;28;20046;-96
2022/06/29 11:24:58;;;;;;;1.67;0.80;;;27.80;59.30;;;;;;4962989;28;20073;-96
2022/06/29 11:27:35;;;;;;;4.20;1.08;;;27.90;57.70;;;;;;5000799;28;20034;-96
2022/06/29 11:30:02;;;;;;;6.90;0.77;;;28.10;58.50;;;;;;4998243;28;20046;-95
2022/06/29 11:32:38;;;;;;;2.47;1.13;;;28.40;58.80;;;;;;4980844;28;20046;-96
2022/06/29 11:35:05;;;;;;;1.40;0.65;;;28.50;56.80;;;;;;4997170;28;20109;-96
2022/06/29 11:37:31;;;;;;;1.25;0.50;;;28.60;57.30;;;;;;4966081;28;20049;-96
2022/06/29 11:40:00;;;;;;;0.70;0.60;;;28.70;56.00;;;;;;5017615;28;20049;-96
2022/06/29 11:45:18;;;;;;;2.50;0.53;;;28.70;54.50;;;;;;5001649;28;20053;-96
2022/06/29 11:47:52;;;;;;;1.33;0.70;;;28.80;54.90;;;;;;4997886;28;20493;-96
2022/06/29 11:50:18;;;;;;;1.30;0.45;;;28.70;52.20;;;;;;4997364;28;20122;-96
2022/06/29 11:52:51;;;;;;;2.50;0.80;;;27.80;52.00;;;;;;4984137;28;20046;-96
2022/06/29 11:55:40;;;;;;;1.17;0.60;;;28.40;52.50;;;;;;5002049;28;20046;-96
2022/06/29 11:58:08;;;;;;;2.72;0.50;;;28.50;53.50;;;;;;5003476;28;20046;-96
2022/06/29 12:00:37;;;;;;;0.65;0.50;;;28.50;52.70;;;;;;5008975;28;20105;-96
2022/06/29 12:03:03;;;;;;;3.05;0.80;;;28.60;52.80;;;;;;4984147;28;20095;-96
2022/06/29 12:05:29;;;;;;;2.78;0.60;;;28.70;51.50;;;;;;5007442;28;20034;-94
2022/06/29 12:07:58;;;;;;;1.85;0.63;;;28.80;50.80;;;;;;4981500;28;20037;-93
2022/06/29 12:10:43;;;;;;;1.42;0.77;;;28.80;50.60;;;;;;4998351;28;20039;-96
2022/06/29 12:13:37;;;;;;;2.17;0.70;;;28.70;50.70;;;;;;5008209;28;20050;-96
2022/06/29 12:16:03;;;;;;;2.08;0.80;;;28.70;51.70;;;;;;4968821;28;20039;-96
2022/06/29 12:18:31;;;;;;;1.27;0.85;;;28.60;51.60;;;;;;4963492;28;20065;-96
2022/06/29 12:20:58;;;;;;;1.33;0.65;;;28.20;51.10;;;;;;4960840;28;20054;-96
2022/06/29 12:23:38;;;;;;;3.38;0.70;;;28.30;51.40;;;;;;4974066;28;20023;-95
2022/06/29 12:33:36;;;;;;;1.73;0.95;;;29.10;51.10;;;;;;5013625;28;20138;-93
2022/06/29 12:36:18;;;;;;;3.20;1.13;;;29.20;51.10;;;;;;4984167;28;20085;-96
2022/06/29 12:38:52;;;;;;;1.45;1.25;;;29.20;50.70;;;;;;4998445;28;20042;-93
2022/06/29 12:41:18;;;;;;;2.05;1.00;;;29.10;51.20;;;;;;4992018;28;20050;-94
2022/06/29 12:43:44;;;;;;;2.83;1.15;;;29.10;51.20;;;;;;4980086;28;20112;-96
2022/06/29 12:46:12;;;;;;;2.10;1.35;;;29.20;51.70;;;;;;4986545;28;20054;-96
2022/06/29 12:48:41;;;;;;;3.53;1.10;;;29.80;52.20;;;;;;4987478;28;20046;-88
2022/06/29 12:51:13;;;;;;;2.60;1.23;;;29.70;51.40;;;;;;5030290;28;20105;-94
2022/06/29 12:54:10;;;;;;;1.58;1.17;;;30.00;51.60;;;;;;5016627;28;20038;-95
2022/06/29 12:56:48;;;;;;;3.47;1.02;;;29.50;50.20;;;;;;4964731;28;20062;-96
2022/06/29 12:59:14;;;;;;;4.00;1.40;;;30.10;51.10;;;;;;4953050;28;20054;-96
2022/06/29 13:01:40;;;;;;;4.55;1.88;;;30.10;50.10;;;;;;4916301;28;20117;-95
2022/06/29 13:04:06;;;;;;;1.67;1.23;;;30.00;50.70;;;;;;4926044;28;20054;-96
2022/06/29 13:06:33;;;;;;;1.70;1.27;;;30.00;51.50;;;;;;4938219;28;20051;-93
2022/06/29 13:08:59;;;;;;;9.15;1.55;;;29.90;51.50;;;;;;4938815;28;20053;-95
2022/06/29 13:11:25;;;;;;;3.00;1.70;;;29.90;51.50;;;;;;4924620;28;20050;-94
2022/06/29 13:13:51;;;;;;;2.20;2.00;;;29.80;52.20;;;;;;4939733;28;20057;-95
2022/06/29 13:16:18;;;;;;;2.80;1.55;;;29.90;52.30;;;;;;4939827;28;20058;-96
2022/06/29 13:18:44;;;;;;;2.10;1.85;;;30.00;54.00;;;;;;4924813;28;20081;-94
2022/06/29 13:21:10;;;;;;;2.45;1.45;;;30.00;54.60;;;;;;4942346;28;20046;-92